sensor_id;sensor_type;location;lat;lon;timestamp;temperature;humidity
65038;DHT22;51605;47.040;15.294;2022-10-16T00:01:15;23.00;57.60
65038;DHT22;51605;47.040;15.294;2022-10-16T00:03:43;23.00;57.60
65038;DHT22;51605;47.040;15.294;2022-10-16T00:06:09;23.00;57.60
65038;DHT22;51605;47.040;15.294;2022-10-16T00:08:36;23.00;57.60
65038;DHT22;51605;47.040;15.294;2022-10-16T00:11:08;23.00;57.60
65038;DHT22;51605;47.040;15.294;2022-10-16T00:13:35;23.00;57.80
65038;DHT22;51605;47.040;15.294;2022-10-16T00:16:02;23.00;57.60
65038;DHT22;51605;47.040;15.294;2022-10-16T00:18:29;23.00;57.60
65038;DHT22;51605;47.040;15.294;2022-10-16T00:20:55;23.00;57.50
65038;DHT22;51605;47.040;15.294;2022-10-16T00:23:21;23.00;57.50
65038;DHT22;51605;47.040;15.294;2022-10-16T00:25:59;23.10;57.50
65038;DHT22;51605;47.040;15.294;2022-10-16T00:28:26;23.00;57.50
65038;DHT22;51605;47.040;15.294;2022-10-16T00:30:52;23.00;57.50
65038;DHT22;51605;47.040;15.294;2022-10-16T00:33:18;23.00;57.60
65038;DHT22;51605;47.040;15.294;2022-10-16T00:35:43;23.00;57.60
65038;DHT22;51605;47.040;15.294;2022-10-16T00:38:09;23.00;57.60
65038;DHT22;51605;47.040;15.294;2022-10-16T00:40:35;23.00;57.60
65038;DHT22;51605;47.040;15.294;2022-10-16T00:43:01;23.00;57.60
65038;DHT22;51605;47.040;15.294;2022-10-16T00:45:26;23.00;57.60
65038;DHT22;51605;47.040;15.294;2022-10-16T00:47:54;23.00;57.60
65038;DHT22;51605;47.040;15.294;2022-10-16T00:50:29;23.00;57.60
65038;DHT22;51605;47.040;15.294;2022-10-16T00:52:56;23.00;57.70
65038;DHT22;51605;47.040;15.294;2022-10-16T00:55:22;23.00;57.60
65038;DHT22;51605;47.040;15.294;2022-10-16T00:57:49;23.00;57.70
65038;DHT22;51605;47.040;15.294;2022-10-16T01:00:21;23.00;57.70
65038;DHT22;51605;47.040;15.294;2022-10-16T01:02:58;23.00;57.70
65038;DHT22;51605;47.040;15.294;2022-10-16T01:05:30;23.00;57.70
65038;DHT22;51605;47.040;15.294;2022-10-16T01:11:06;23.00;57.50
65038;DHT22;51605;47.040;15.294;2022-10-16T01:13:40;23.00;58.10
65038;DHT22;51605;47.040;15.294;2022-10-16T01:16:13;23.00;57.50
65038;DHT22;51605;47.040;15.294;2022-10-16T01:18:46;23.00;57.50
65038;DHT22;51605;47.040;15.294;2022-10-16T01:21:33;23.00;57.50
65038;DHT22;51605;47.040;15.294;2022-10-16T01:27:12;23.00;57.60
65038;DHT22;51605;47.040;15.294;2022-10-16T01:29:59;23.00;57.50
65038;DHT22;51605;47.040;15.294;2022-10-16T01:34:57;23.00;57.60
65038;DHT22;51605;47.040;15.294;2022-10-16T01:40:18;23.00;57.60
65038;DHT22;51605;47.040;15.294;2022-10-16T01:42:50;23.00;57.60
65038;DHT22;51605;47.040;15.294;2022-10-16T01:45:19;23.00;57.60
65038;DHT22;51605;47.040;15.294;2022-10-16T01:47:47;23.00;57.60
65038;DHT22;51605;47.040;15.294;2022-10-16T01:50:14;23.00;57.60
65038;DHT22;51605;47.040;15.294;2022-10-16T01:52:44;23.00;57.60
65038;DHT22;51605;47.040;15.294;2022-10-16T01:55:13;23.00;57.60
65038;DHT22;51605;47.040;15.294;2022-10-16T01:57:43;23.00;57.60
65038;DHT22;51605;47.040;15.294;2022-10-16T02:00:12;23.00;57.60
65038;DHT22;51605;47.040;15.294;2022-10-16T02:02:41;23.00;57.60
65038;DHT22;51605;47.040;15.294;2022-10-16T02:05:12;23.00;57.50
65038;DHT22;51605;47.040;15.294;2022-10-16T02:07:41;23.00;57.60
65038;DHT22;51605;47.040;15.294;2022-10-16T02:10:08;23.00;57.50
65038;DHT22;51605;47.040;15.294;2022-10-16T02:12:37;23.00;57.50
65038;DHT22;51605;47.040;15.294;2022-10-16T02:15:05;23.00;57.60
65038;DHT22;51605;47.040;15.294;2022-10-16T02:17:31;23.00;57.50
65038;DHT22;51605;47.040;15.294;2022-10-16T02:19:58;23.00;57.60
65038;DHT22;51605;47.040;15.294;2022-10-16T02:28:08;23.00;57.60
65038;DHT22;51605;47.040;15.294;2022-10-16T02:33:12;23.00;57.60
65038;DHT22;51605;47.040;15.294;2022-10-16T02:35:40;23.00;57.60
65038;DHT22;51605;47.040;15.294;2022-10-16T02:38:08;23.00;57.60
65038;DHT22;51605;47.040;15.294;2022-10-16T02:40:35;23.00;57.60
65038;DHT22;51605;47.040;15.294;2022-10-16T02:43:03;23.00;57.70
65038;DHT22;51605;47.040;15.294;2022-10-16T02:45:30;23.00;57.60
65038;DHT22;51605;47.040;15.294;2022-10-16T02:47:55;23.00;57.70
65038;DHT22;51605;47.040;15.294;2022-10-16T02:50:21;23.00;57.60
65038;DHT22;51605;47.040;15.294;2022-10-16T02:52:48;23.00;57.60
65038;DHT22;51605;47.040;15.294;2022-10-16T02:55:13;23.00;57.60
65038;DHT22;51605;47.040;15.294;2022-10-16T02:57:39;23.00;57.60
65038;DHT22;51605;47.040;15.294;2022-10-16T03:00:07;23.00;57.60
65038;DHT22;51605;47.040;15.294;2022-10-16T03:02:33;23.00;57.60
65038;DHT22;51605;47.040;15.294;2022-10-16T03:04:59;23.00;57.60
65038;DHT22;51605;47.040;15.294;2022-10-16T03:07:24;23.00;57.60
65038;DHT22;51605;47.040;15.294;2022-10-16T03:09:50;23.00;57.60
65038;DHT22;51605;47.040;15.294;2022-10-16T03:12:15;23.00;57.60
65038;DHT22;51605;47.040;15.294;2022-10-16T03:14:41;23.00;58.50
65038;DHT22;51605;47.040;15.294;2022-10-16T03:17:07;23.00;57.60
65038;DHT22;51605;47.040;15.294;2022-10-16T03:19:32;23.00;57.60
65038;DHT22;51605;47.040;15.294;2022-10-16T03:21:58;23.00;57.50
65038;DHT22;51605;47.040;15.294;2022-10-16T03:24:24;23.00;57.50
65038;DHT22;51605;47.040;15.294;2022-10-16T03:26:49;23.00;57.50
65038;DHT22;51605;47.040;15.294;2022-10-16T03:29:15;23.00;57.60
65038;DHT22;51605;47.040;15.294;2022-10-16T03:31:40;23.00;58.50
65038;DHT22;51605;47.040;15.294;2022-10-16T03:34:06;23.00;57.50
65038;DHT22;51605;47.040;15.294;2022-10-16T03:36:32;23.00;57.50
65038;DHT22;51605;47.040;15.294;2022-10-16T03:38:57;23.00;57.50
65038;DHT22;51605;47.040;15.294;2022-10-16T03:41:23;23.00;57.50
65038;DHT22;51605;47.040;15.294;2022-10-16T03:43:48;23.00;57.50
65038;DHT22;51605;47.040;15.294;2022-10-16T03:46:14;23.00;57.50
65038;DHT22;51605;47.040;15.294;2022-10-16T03:48:40;23.00;57.50
65038;DHT22;51605;47.040;15.294;2022-10-16T03:51:06;23.00;57.50
65038;DHT22;51605;47.040;15.294;2022-10-16T03:53:31;23.00;57.50
65038;DHT22;51605;47.040;15.294;2022-10-16T03:55:57;23.00;57.50
65038;DHT22;51605;47.040;15.294;2022-10-16T03:58:23;23.00;57.80
65038;DHT22;51605;47.040;15.294;2022-10-16T04:00:49;23.00;57.50
65038;DHT22;51605;47.040;15.294;2022-10-16T04:03:15;23.00;57.50
65038;DHT22;51605;47.040;15.294;2022-10-16T04:05:41;23.00;57.60
65038;DHT22;51605;47.040;15.294;2022-10-16T04:08:07;23.00;57.60
65038;DHT22;51605;47.040;15.294;2022-10-16T04:10:32;23.00;57.60
65038;DHT22;51605;47.040;15.294;2022-10-16T04:12:58;23.00;57.60
65038;DHT22;51605;47.040;15.294;2022-10-16T04:15:24;23.00;57.60
65038;DHT22;51605;47.040;15.294;2022-10-16T04:17:51;23.00;57.60
65038;DHT22;51605;47.040;15.294;2022-10-16T04:20:17;23.00;57.60
65038;DHT22;51605;47.040;15.294;2022-10-16T04:22:42;23.00;57.60
65038;DHT22;51605;47.040;15.294;2022-10-16T04:25:09;23.00;57.50
65038;DHT22;51605;47.040;15.294;2022-10-16T04:27:35;23.00;57.60
65038;DHT22;51605;47.040;15.294;2022-10-16T04:30:00;23.00;57.60
65038;DHT22;51605;47.040;15.294;2022-10-16T04:32:26;23.00;57.60
65038;DHT22;51605;47.040;15.294;2022-10-16T04:34:52;23.00;57.60
65038;DHT22;51605;47.040;15.294;2022-10-16T04:37:18;22.90;57.50
65038;DHT22;51605;47.040;15.294;2022-10-16T04:39:44;23.00;57.50
65038;DHT22;51605;47.040;15.294;2022-10-16T04:42:10;23.00;57.60
65038;DHT22;51605;47.040;15.294;2022-10-16T04:44:36;23.00;57.70
65038;DHT22;51605;47.040;15.294;2022-10-16T04:47:02;23.00;57.60
65038;DHT22;51605;47.040;15.294;2022-10-16T04:49:28;23.00;57.70
65038;DHT22;51605;47.040;15.294;2022-10-16T04:51:53;23.00;57.70
65038;DHT22;51605;47.040;15.294;2022-10-16T04:54:19;23.00;57.60
65038;DHT22;51605;47.040;15.294;2022-10-16T04:56:45;23.00;57.60
65038;DHT22;51605;47.040;15.294;2022-10-16T04:59:16;23.00;57.60
65038;DHT22;51605;47.040;15.294;2022-10-16T05:01:41;23.00;57.60
65038;DHT22;51605;47.040;15.294;2022-10-16T05:04:07;23.00;57.70
65038;DHT22;51605;47.040;15.294;2022-10-16T05:06:33;23.00;57.70
65038;DHT22;51605;47.040;15.294;2022-10-16T05:08:58;23.00;57.60
65038;DHT22;51605;47.040;15.294;2022-10-16T05:11:24;23.00;57.70
65038;DHT22;51605;47.040;15.294;2022-10-16T05:13:50;23.00;57.60
65038;DHT22;51605;47.040;15.294;2022-10-16T05:16:15;23.00;57.60
65038;DHT22;51605;47.040;15.294;2022-10-16T05:18:41;23.00;57.60
65038;DHT22;51605;47.040;15.294;2022-10-16T05:21:07;23.00;57.60
65038;DHT22;51605;47.040;15.294;2022-10-16T05:23:33;23.00;57.70
65038;DHT22;51605;47.040;15.294;2022-10-16T05:25:59;23.00;57.70
65038;DHT22;51605;47.040;15.294;2022-10-16T05:28:28;23.00;57.60
65038;DHT22;51605;47.040;15.294;2022-10-16T05:30:56;23.00;57.60
65038;DHT22;51605;47.040;15.294;2022-10-16T05:33:23;23.00;57.70
65038;DHT22;51605;47.040;15.294;2022-10-16T05:35:49;23.00;57.70
65038;DHT22;51605;47.040;15.294;2022-10-16T05:38:15;23.00;57.70
65038;DHT22;51605;47.040;15.294;2022-10-16T05:40:41;23.00;57.50
65038;DHT22;51605;47.040;15.294;2022-10-16T05:43:07;23.00;57.60
65038;DHT22;51605;47.040;15.294;2022-10-16T05:45:32;23.00;57.60
65038;DHT22;51605;47.040;15.294;2022-10-16T05:47:59;23.00;57.70
65038;DHT22;51605;47.040;15.294;2022-10-16T05:50:25;23.00;57.70
65038;DHT22;51605;47.040;15.294;2022-10-16T05:52:50;23.00;57.80
65038;DHT22;51605;47.040;15.294;2022-10-16T05:55:16;22.90;57.80
65038;DHT22;51605;47.040;15.294;2022-10-16T05:57:42;23.00;57.70
65038;DHT22;51605;47.040;15.294;2022-10-16T06:00:08;23.00;57.70
65038;DHT22;51605;47.040;15.294;2022-10-16T06:02:34;23.00;57.70
65038;DHT22;51605;47.040;15.294;2022-10-16T06:04:59;23.00;57.70
65038;DHT22;51605;47.040;15.294;2022-10-16T06:07:25;23.00;57.70
65038;DHT22;51605;47.040;15.294;2022-10-16T06:09:51;23.00;57.80
65038;DHT22;51605;47.040;15.294;2022-10-16T06:12:18;23.00;57.70
65038;DHT22;51605;47.040;15.294;2022-10-16T06:14:44;23.00;57.70
65038;DHT22;51605;47.040;15.294;2022-10-16T06:17:10;23.00;57.70
65038;DHT22;51605;47.040;15.294;2022-10-16T06:19:36;23.00;57.80
65038;DHT22;51605;47.040;15.294;2022-10-16T06:22:01;23.00;57.70
65038;DHT22;51605;47.040;15.294;2022-10-16T06:24:29;23.00;57.70
65038;DHT22;51605;47.040;15.294;2022-10-16T06:26:55;23.00;57.70
65038;DHT22;51605;47.040;15.294;2022-10-16T06:29:20;23.00;57.70
65038;DHT22;51605;47.040;15.294;2022-10-16T06:31:46;23.00;57.70
65038;DHT22;51605;47.040;15.294;2022-10-16T06:34:12;23.00;57.70
65038;DHT22;51605;47.040;15.294;2022-10-16T06:36:38;23.00;57.70
65038;DHT22;51605;47.040;15.294;2022-10-16T06:39:04;23.00;57.70
65038;DHT22;51605;47.040;15.294;2022-10-16T06:41:30;23.00;57.70
65038;DHT22;51605;47.040;15.294;2022-10-16T06:43:56;23.00;57.70
65038;DHT22;51605;47.040;15.294;2022-10-16T06:46:23;23.00;57.80
65038;DHT22;51605;47.040;15.294;2022-10-16T06:48:49;23.00;57.80
65038;DHT22;51605;47.040;15.294;2022-10-16T06:51:20;23.00;57.70
65038;DHT22;51605;47.040;15.294;2022-10-16T06:53:50;23.00;57.80
65038;DHT22;51605;47.040;15.294;2022-10-16T06:56:19;23.00;57.80
65038;DHT22;51605;47.040;15.294;2022-10-16T06:58:46;22.90;57.70
65038;DHT22;51605;47.040;15.294;2022-10-16T07:01:12;22.90;57.70
65038;DHT22;51605;47.040;15.294;2022-10-16T07:03:39;22.90;57.60
65038;DHT22;51605;47.040;15.294;2022-10-16T07:06:07;23.00;57.60
65038;DHT22;51605;47.040;15.294;2022-10-16T07:08:39;23.00;57.60
65038;DHT22;51605;47.040;15.294;2022-10-16T07:11:11;23.00;57.60
65038;DHT22;51605;47.040;15.294;2022-10-16T07:13:37;22.90;57.50
65038;DHT22;51605;47.040;15.294;2022-10-16T07:16:13;22.90;57.40
65038;DHT22;51605;47.040;15.294;2022-10-16T07:18:39;22.90;57.50
65038;DHT22;51605;47.040;15.294;2022-10-16T07:21:11;22.90;57.30
65038;DHT22;51605;47.040;15.294;2022-10-16T07:23:37;22.90;57.30
65038;DHT22;51605;47.040;15.294;2022-10-16T07:26:04;23.00;57.30
65038;DHT22;51605;47.040;15.294;2022-10-16T07:28:30;23.00;57.30
65038;DHT22;51605;47.040;15.294;2022-10-16T07:31:04;23.00;57.30
65038;DHT22;51605;47.040;15.294;2022-10-16T07:33:31;23.00;57.30
65038;DHT22;51605;47.040;15.294;2022-10-16T07:35:57;23.00;57.30
65038;DHT22;51605;47.040;15.294;2022-10-16T07:38:23;23.00;57.30
65038;DHT22;51605;47.040;15.294;2022-10-16T07:40:56;23.00;57.30
65038;DHT22;51605;47.040;15.294;2022-10-16T07:43:22;22.90;57.30
65038;DHT22;51605;47.040;15.294;2022-10-16T07:45:48;23.00;57.40
65038;DHT22;51605;47.040;15.294;2022-10-16T07:48:15;23.00;57.40
65038;DHT22;51605;47.040;15.294;2022-10-16T07:50:40;23.00;57.40
65038;DHT22;51605;47.040;15.294;2022-10-16T07:53:06;23.00;57.20
65038;DHT22;51605;47.040;15.294;2022-10-16T07:55:32;23.00;57.30
65038;DHT22;51605;47.040;15.294;2022-10-16T07:57:58;23.00;57.40
65038;DHT22;51605;47.040;15.294;2022-10-16T08:00:23;23.00;57.40
65038;DHT22;51605;47.040;15.294;2022-10-16T08:02:49;23.00;57.40
65038;DHT22;51605;47.040;15.294;2022-10-16T08:05:14;23.00;57.50
65038;DHT22;51605;47.040;15.294;2022-10-16T08:07:40;23.00;57.60
65038;DHT22;51605;47.040;15.294;2022-10-16T08:10:06;23.00;57.50
65038;DHT22;51605;47.040;15.294;2022-10-16T08:12:31;23.00;57.50
65038;DHT22;51605;47.040;15.294;2022-10-16T08:14:57;23.00;57.50
65038;DHT22;51605;47.040;15.294;2022-10-16T08:17:23;23.00;57.50
65038;DHT22;51605;47.040;15.294;2022-10-16T08:19:48;23.00;57.50
65038;DHT22;51605;47.040;15.294;2022-10-16T08:22:14;23.00;57.50
65038;DHT22;51605;47.040;15.294;2022-10-16T08:24:40;23.00;58.50
65038;DHT22;51605;47.040;15.294;2022-10-16T08:27:06;23.00;57.50
65038;DHT22;51605;47.040;15.294;2022-10-16T08:29:32;23.00;57.50
65038;DHT22;51605;47.040;15.294;2022-10-16T08:31:57;23.00;57.50
65038;DHT22;51605;47.040;15.294;2022-10-16T08:34:23;23.00;57.60
65038;DHT22;51605;47.040;15.294;2022-10-16T08:36:49;23.00;57.60
65038;DHT22;51605;47.040;15.294;2022-10-16T08:39:15;23.00;58.50
65038;DHT22;51605;47.040;15.294;2022-10-16T08:47:18;23.00;57.70
65038;DHT22;51605;47.040;15.294;2022-10-16T08:50:10;22.90;57.70
65038;DHT22;51605;47.040;15.294;2022-10-16T08:52:40;22.90;57.80
65038;DHT22;51605;47.040;15.294;2022-10-16T08:55:08;23.00;57.70
65038;DHT22;51605;47.040;15.294;2022-10-16T08:57:42;22.90;57.60
65038;DHT22;51605;47.040;15.294;2022-10-16T09:00:13;23.00;58.70
65038;DHT22;51605;47.040;15.294;2022-10-16T09:03:04;22.90;57.80
65038;DHT22;51605;47.040;15.294;2022-10-16T09:05:44;22.90;57.70
65038;DHT22;51605;47.040;15.294;2022-10-16T09:16:27;22.90;57.80
65038;DHT22;51605;47.040;15.294;2022-10-16T09:21:28;23.00;57.80
65038;DHT22;51605;47.040;15.294;2022-10-16T09:26:43;22.90;57.70
65038;DHT22;51605;47.040;15.294;2022-10-16T09:29:13;23.00;57.80
65038;DHT22;51605;47.040;15.294;2022-10-16T09:31:40;22.90;57.80
65038;DHT22;51605;47.040;15.294;2022-10-16T09:34:08;22.90;57.80
65038;DHT22;51605;47.040;15.294;2022-10-16T09:36:42;22.90;57.80
65038;DHT22;51605;47.040;15.294;2022-10-16T09:39:11;23.00;57.80
65038;DHT22;51605;47.040;15.294;2022-10-16T09:41:41;22.90;57.80
65038;DHT22;51605;47.040;15.294;2022-10-16T09:44:27;22.90;57.70
65038;DHT22;51605;47.040;15.294;2022-10-16T09:49:37;22.90;57.80
65038;DHT22;51605;47.040;15.294;2022-10-16T09:52:05;22.90;57.80
65038;DHT22;51605;47.040;15.294;2022-10-16T09:54:31;22.90;57.80
65038;DHT22;51605;47.040;15.294;2022-10-16T09:57:07;22.90;57.80
65038;DHT22;51605;47.040;15.294;2022-10-16T09:59:52;22.90;57.90
65038;DHT22;51605;47.040;15.294;2022-10-16T10:02:23;22.90;57.90
65038;DHT22;51605;47.040;15.294;2022-10-16T10:04:54;22.90;57.80
65038;DHT22;51605;47.040;15.294;2022-10-16T10:07:26;22.90;57.80
65038;DHT22;51605;47.040;15.294;2022-10-16T10:09:53;22.90;57.90
65038;DHT22;51605;47.040;15.294;2022-10-16T10:12:30;22.90;57.80
65038;DHT22;51605;47.040;15.294;2022-10-16T10:15:11;22.90;57.90
65038;DHT22;51605;47.040;15.294;2022-10-16T10:17:49;22.90;57.90
65038;DHT22;51605;47.040;15.294;2022-10-16T10:22:46;22.90;57.90
65038;DHT22;51605;47.040;15.294;2022-10-16T10:30:22;22.90;57.80
65038;DHT22;51605;47.040;15.294;2022-10-16T10:33:55;22.90;57.80
65038;DHT22;51605;47.040;15.294;2022-10-16T10:39:15;22.90;57.90
65038;DHT22;51605;47.040;15.294;2022-10-16T10:47:33;22.90;57.90
65038;DHT22;51605;47.040;15.294;2022-10-16T11:01:17;22.90;57.90
65038;DHT22;51605;47.040;15.294;2022-10-16T11:06:40;22.90;58.00
65038;DHT22;51605;47.040;15.294;2022-10-16T11:09:18;22.90;58.00
65038;DHT22;51605;47.040;15.294;2022-10-16T11:11:56;22.90;58.00
65038;DHT22;51605;47.040;15.294;2022-10-16T11:14:34;22.90;58.00
65038;DHT22;51605;47.040;15.294;2022-10-16T11:17:23;22.90;58.00
65038;DHT22;51605;47.040;15.294;2022-10-16T11:20:05;22.90;57.90
65038;DHT22;51605;47.040;15.294;2022-10-16T11:22:42;22.90;58.00
65038;DHT22;51605;47.040;15.294;2022-10-16T11:25:32;22.90;57.90
65038;DHT22;51605;47.040;15.294;2022-10-16T11:30:47;22.90;57.90
65038;DHT22;51605;47.040;15.294;2022-10-16T11:41:22;22.90;58.00
65038;DHT22;51605;47.040;15.294;2022-10-16T11:46:46;22.90;57.90
65038;DHT22;51605;47.040;15.294;2022-10-16T11:49:16;22.90;57.90
65038;DHT22;51605;47.040;15.294;2022-10-16T11:54:32;22.90;58.00
65038;DHT22;51605;47.040;15.294;2022-10-16T11:57:05;22.90;58.10
65038;DHT22;51605;47.040;15.294;2022-10-16T11:59:52;22.90;58.00
65038;DHT22;51605;47.040;15.294;2022-10-16T12:02:32;22.90;58.00
65038;DHT22;51605;47.040;15.294;2022-10-16T12:08:10;22.90;58.10
65038;DHT22;51605;47.040;15.294;2022-10-16T12:10:37;22.90;58.10
65038;DHT22;51605;47.040;15.294;2022-10-16T12:18:44;22.90;58.10
65038;DHT22;51605;47.040;15.294;2022-10-16T12:21:11;22.90;58.00
65038;DHT22;51605;47.040;15.294;2022-10-16T12:23:52;22.90;58.00
65038;DHT22;51605;47.040;15.294;2022-10-16T12:26:29;22.90;58.10
65038;DHT22;51605;47.040;15.294;2022-10-16T12:31:47;22.90;58.10
65038;DHT22;51605;47.040;15.294;2022-10-16T12:34:29;22.90;58.90
65038;DHT22;51605;47.040;15.294;2022-10-16T12:37:09;22.90;58.00
65038;DHT22;51605;47.040;15.294;2022-10-16T12:39:36;22.90;58.00
65038;DHT22;51605;47.040;15.294;2022-10-16T12:42:05;22.90;58.00
65038;DHT22;51605;47.040;15.294;2022-10-16T12:44:33;22.90;58.10
65038;DHT22;51605;47.040;15.294;2022-10-16T12:47:00;22.90;58.00
65038;DHT22;51605;47.040;15.294;2022-10-16T12:49:30;22.90;58.10
65038;DHT22;51605;47.040;15.294;2022-10-16T12:51:56;22.90;58.20
65038;DHT22;51605;47.040;15.294;2022-10-16T12:54:31;22.90;58.10
65038;DHT22;51605;47.040;15.294;2022-10-16T13:08:13;22.90;58.10
65038;DHT22;51605;47.040;15.294;2022-10-16T13:11:15;22.90;58.10
65038;DHT22;51605;47.040;15.294;2022-10-16T13:14:02;22.90;58.10
65038;DHT22;51605;47.040;15.294;2022-10-16T13:30:23;22.90;58.00
65038;DHT22;51605;47.040;15.294;2022-10-16T13:32:55;22.90;58.10
65038;DHT22;51605;47.040;15.294;2022-10-16T13:35:26;22.90;58.10
65038;DHT22;51605;47.040;15.294;2022-10-16T13:38:13;22.90;58.20
65038;DHT22;51605;47.040;15.294;2022-10-16T13:43:45;22.90;58.10
65038;DHT22;51605;47.040;15.294;2022-10-16T13:46:13;22.90;58.10
65038;DHT22;51605;47.040;15.294;2022-10-16T13:48:39;22.90;59.20
65038;DHT22;51605;47.040;15.294;2022-10-16T13:51:14;22.90;58.20
65038;DHT22;51605;47.040;15.294;2022-10-16T13:53:40;22.90;58.20
65038;DHT22;51605;47.040;15.294;2022-10-16T13:56:17;22.90;58.00
65038;DHT22;51605;47.040;15.294;2022-10-16T13:58:43;23.00;58.10
65038;DHT22;51605;47.040;15.294;2022-10-16T14:03:42;22.90;58.20
65038;DHT22;51605;47.040;15.294;2022-10-16T14:06:14;22.90;58.20
65038;DHT22;51605;47.040;15.294;2022-10-16T14:08:44;22.90;58.10
65038;DHT22;51605;47.040;15.294;2022-10-16T14:11:11;22.90;58.10
65038;DHT22;51605;47.040;15.294;2022-10-16T14:13:39;22.90;58.30
65038;DHT22;51605;47.040;15.294;2022-10-16T14:16:10;22.90;58.10
65038;DHT22;51605;47.040;15.294;2022-10-16T14:18:40;23.00;58.10
65038;DHT22;51605;47.040;15.294;2022-10-16T14:21:07;22.90;58.00
65038;DHT22;51605;47.040;15.294;2022-10-16T14:23:38;22.90;58.10
65038;DHT22;51605;47.040;15.294;2022-10-16T14:28:37;22.90;58.00
65038;DHT22;51605;47.040;15.294;2022-10-16T14:33:46;22.90;58.00
65038;DHT22;51605;47.040;15.294;2022-10-16T14:36:16;22.90;58.10
65038;DHT22;51605;47.040;15.294;2022-10-16T14:39:04;22.90;58.20
65038;DHT22;51605;47.040;15.294;2022-10-16T14:41:32;22.90;58.20
65038;DHT22;51605;47.040;15.294;2022-10-16T14:44:05;22.90;58.20
65038;DHT22;51605;47.040;15.294;2022-10-16T14:46:38;22.90;59.20
65038;DHT22;51605;47.040;15.294;2022-10-16T14:49:13;22.90;58.20
65038;DHT22;51605;47.040;15.294;2022-10-16T14:51:42;22.90;58.20
65038;DHT22;51605;47.040;15.294;2022-10-16T14:54:10;22.90;58.30
65038;DHT22;51605;47.040;15.294;2022-10-16T14:56:51;22.90;58.20
65038;DHT22;51605;47.040;15.294;2022-10-16T14:59:33;22.90;58.30
65038;DHT22;51605;47.040;15.294;2022-10-16T15:01:59;22.90;58.20
65038;DHT22;51605;47.040;15.294;2022-10-16T15:04:25;22.90;58.20
65038;DHT22;51605;47.040;15.294;2022-10-16T15:06:51;22.90;58.20
65038;DHT22;51605;47.040;15.294;2022-10-16T15:09:17;22.90;58.10
65038;DHT22;51605;47.040;15.294;2022-10-16T15:11:43;22.90;58.00
65038;DHT22;51605;47.040;15.294;2022-10-16T15:14:12;22.90;58.00
65038;DHT22;51605;47.040;15.294;2022-10-16T15:16:38;22.90;58.20
65038;DHT22;51605;47.040;15.294;2022-10-16T15:19:04;22.90;58.00
65038;DHT22;51605;47.040;15.294;2022-10-16T15:21:31;22.90;58.00
65038;DHT22;51605;47.040;15.294;2022-10-16T15:23:58;22.90;58.00
65038;DHT22;51605;47.040;15.294;2022-10-16T15:26:26;22.90;58.00
65038;DHT22;51605;47.040;15.294;2022-10-16T15:28:52;22.90;58.00
65038;DHT22;51605;47.040;15.294;2022-10-16T15:31:18;22.90;57.90
65038;DHT22;51605;47.040;15.294;2022-10-16T15:33:44;22.90;58.00
65038;DHT22;51605;47.040;15.294;2022-10-16T15:36:13;22.90;58.00
65038;DHT22;51605;47.040;15.294;2022-10-16T15:38:38;22.90;58.00
65038;DHT22;51605;47.040;15.294;2022-10-16T15:41:04;22.90;57.90
65038;DHT22;51605;47.040;15.294;2022-10-16T15:43:30;22.90;57.90
65038;DHT22;51605;47.040;15.294;2022-10-16T15:46:01;23.00;58.00
65038;DHT22;51605;47.040;15.294;2022-10-16T15:48:28;22.90;58.00
65038;DHT22;51605;47.040;15.294;2022-10-16T15:50:54;23.00;58.00
65038;DHT22;51605;47.040;15.294;2022-10-16T15:53:19;23.00;58.40
65038;DHT22;51605;47.040;15.294;2022-10-16T15:55:45;23.00;58.70
65038;DHT22;51605;47.040;15.294;2022-10-16T15:58:10;23.00;58.60
65038;DHT22;51605;47.040;15.294;2022-10-16T16:00:36;22.90;58.40
65038;DHT22;51605;47.040;15.294;2022-10-16T16:03:02;23.00;58.80
65038;DHT22;51605;47.040;15.294;2022-10-16T16:05:28;23.00;58.90
65038;DHT22;51605;47.040;15.294;2022-10-16T16:07:54;23.00;59.10
65038;DHT22;51605;47.040;15.294;2022-10-16T16:10:20;23.10;59.20
65038;DHT22;51605;47.040;15.294;2022-10-16T16:12:49;23.20;59.30
65038;DHT22;51605;47.040;15.294;2022-10-16T16:15:21;23.20;59.20
65038;DHT22;51605;47.040;15.294;2022-10-16T16:17:47;23.20;59.40
65038;DHT22;51605;47.040;15.294;2022-10-16T16:20:12;23.30;59.40
65038;DHT22;51605;47.040;15.294;2022-10-16T16:22:38;23.30;59.40
65038;DHT22;51605;47.040;15.294;2022-10-16T16:25:04;23.40;59.40
65038;DHT22;51605;47.040;15.294;2022-10-16T16:27:30;23.40;59.40
65038;DHT22;51605;47.040;15.294;2022-10-16T16:29:58;23.50;59.30
65038;DHT22;51605;47.040;15.294;2022-10-16T16:32:24;23.50;59.40
65038;DHT22;51605;47.040;15.294;2022-10-16T16:34:50;23.50;59.40
65038;DHT22;51605;47.040;15.294;2022-10-16T16:37:15;23.60;59.20
65038;DHT22;51605;47.040;15.294;2022-10-16T16:39:41;23.70;59.30
65038;DHT22;51605;47.040;15.294;2022-10-16T16:42:07;23.70;59.20
65038;DHT22;51605;47.040;15.294;2022-10-16T16:44:33;23.70;59.10
65038;DHT22;51605;47.040;15.294;2022-10-16T16:47:02;23.70;59.00
65038;DHT22;51605;47.040;15.294;2022-10-16T16:49:28;23.80;59.10
65038;DHT22;51605;47.040;15.294;2022-10-16T16:51:54;23.70;59.00
65038;DHT22;51605;47.040;15.294;2022-10-16T16:54:20;23.70;59.10
65038;DHT22;51605;47.040;15.294;2022-10-16T16:56:46;23.70;59.00
65038;DHT22;51605;47.040;15.294;2022-10-16T16:59:19;23.60;58.90
65038;DHT22;51605;47.040;15.294;2022-10-16T17:01:47;23.60;59.10
65038;DHT22;51605;47.040;15.294;2022-10-16T17:04:13;23.60;59.10
65038;DHT22;51605;47.040;15.294;2022-10-16T17:06:40;23.50;59.10
65038;DHT22;51605;47.040;15.294;2022-10-16T17:09:07;23.50;59.10
65038;DHT22;51605;47.040;15.294;2022-10-16T17:11:33;23.50;59.20
65038;DHT22;51605;47.040;15.294;2022-10-16T17:13:59;23.50;59.20
65038;DHT22;51605;47.040;15.294;2022-10-16T17:16:44;23.40;59.20
65038;DHT22;51605;47.040;15.294;2022-10-16T17:19:13;23.40;59.20
65038;DHT22;51605;47.040;15.294;2022-10-16T17:21:39;23.40;59.20
65038;DHT22;51605;47.040;15.294;2022-10-16T17:24:06;23.40;59.20
65038;DHT22;51605;47.040;15.294;2022-10-16T17:26:32;23.40;59.30
65038;DHT22;51605;47.040;15.294;2022-10-16T17:28:59;23.40;59.30
65038;DHT22;51605;47.040;15.294;2022-10-16T17:31:31;23.30;59.30
65038;DHT22;51605;47.040;15.294;2022-10-16T17:33:58;23.30;59.30
65038;DHT22;51605;47.040;15.294;2022-10-16T17:36:24;23.30;60.10
65038;DHT22;51605;47.040;15.294;2022-10-16T17:38:50;23.30;59.30
65038;DHT22;51605;47.040;15.294;2022-10-16T17:41:19;23.30;59.10